sensor_id;sensor_type;location;lat;lon;timestamp;P1;durP1;ratioP1;P2;durP2;ratioP2
4132;SDS011;2080;51.038;7.008;2022-12-24T00:00:23;433.30;;;248.90;;
4132;SDS011;2080;51.038;7.008;2022-12-24T00:02:51;482.10;;;387.80;;
4132;SDS011;2080;51.038;7.008;2022-12-24T00:05:16;442.37;;;310.53;;
4132;SDS011;2080;51.038;7.008;2022-12-24T00:07:41;475.63;;;400.70;;
4132;SDS011;2080;51.038;7.008;2022-12-24T00:10:07;466.60;;;384.50;;
4132;SDS011;2080;51.038;7.008;2022-12-24T00:12:33;462.10;;;367.57;;
4132;SDS011;2080;51.038;7.008;2022-12-24T00:14:58;478.43;;;397.37;;
4132;SDS011;2080;51.038;7.008;2022-12-24T00:17:23;474.07;;;397.20;;
4132;SDS011;2080;51.038;7.008;2022-12-24T00:19:48;453.90;;;347.03;;
4132;SDS011;2080;51.038;7.008;2022-12-24T00:22:14;473.40;;;378.30;;
4132;SDS011;2080;51.038;7.008;2022-12-24T00:24:39;478.97;;;378.60;;
4132;SDS011;2080;51.038;7.008;2022-12-24T00:27:04;491.80;;;390.43;;
4132;SDS011;2080;51.038;7.008;2022-12-24T00:29:30;478.47;;;404.83;;
4132;SDS011;2080;51.038;7.008;2022-12-24T00:31:55;478.07;;;370.47;;
4132;SDS011;2080;51.038;7.008;2022-12-24T00:34:23;477.87;;;384.93;;
4132;SDS011;2080;51.038;7.008;2022-12-24T00:36:48;488.63;;;397.87;;
4132;SDS011;2080;51.038;7.008;2022-12-24T00:39:13;467.30;;;375.23;;
4132;SDS011;2080;51.038;7.008;2022-12-24T00:41:39;471.03;;;389.60;;
4132;SDS011;2080;51.038;7.008;2022-12-24T00:44:05;468.30;;;359.53;;
4132;SDS011;2080;51.038;7.008;2022-12-24T00:46:31;467.50;;;360.53;;
4132;SDS011;2080;51.038;7.008;2022-12-24T00:48:56;491.63;;;410.67;;
4132;SDS011;2080;51.038;7.008;2022-12-24T00:51:22;417.43;;;187.13;;
4132;SDS011;2080;51.038;7.008;2022-12-24T00:53:47;472.77;;;395.03;;
4132;SDS011;2080;51.038;7.008;2022-12-24T00:56:13;457.13;;;338.83;;
4132;SDS011;2080;51.038;7.008;2022-12-24T00:58:38;494.33;;;415.77;;
4132;SDS011;2080;51.038;7.008;2022-12-24T01:01:04;546.57;;;475.63;;
4132;SDS011;2080;51.038;7.008;2022-12-24T01:03:29;519.73;;;463.63;;
4132;SDS011;2080;51.038;7.008;2022-12-24T01:06:04;494.67;;;426.53;;
4132;SDS011;2080;51.038;7.008;2022-12-24T01:08:31;480.10;;;393.67;;
4132;SDS011;2080;51.038;7.008;2022-12-24T01:10:57;487.07;;;413.90;;
4132;SDS011;2080;51.038;7.008;2022-12-24T01:13:22;539.17;;;482.73;;
4132;SDS011;2080;51.038;7.008;2022-12-24T01:15:48;521.07;;;464.37;;
4132;SDS011;2080;51.038;7.008;2022-12-24T01:18:13;881.33;;;745.97;;
4132;SDS011;2080;51.038;7.008;2022-12-24T01:20:38;461.37;;;302.07;;
4132;SDS011;2080;51.038;7.008;2022-12-24T01:23:03;589.27;;;529.47;;
4132;SDS011;2080;51.038;7.008;2022-12-24T01:25:31;693.67;;;583.07;;
4132;SDS011;2080;51.038;7.008;2022-12-24T01:27:56;654.97;;;589.53;;
4132;SDS011;2080;51.038;7.008;2022-12-24T01:30:21;506.13;;;445.00;;
4132;SDS011;2080;51.038;7.008;2022-12-24T01:32:46;659.73;;;594.53;;
4132;SDS011;2080;51.038;7.008;2022-12-24T01:35:12;599.77;;;536.53;;
4132;SDS011;2080;51.038;7.008;2022-12-24T01:37:40;541.73;;;483.67;;
4132;SDS011;2080;51.038;7.008;2022-12-24T01:40:09;578.23;;;505.03;;
4132;SDS011;2080;51.038;7.008;2022-12-24T01:42:56;473.60;;;393.07;;
4132;SDS011;2080;51.038;7.008;2022-12-24T01:48:10;514.53;;;459.20;;
4132;SDS011;2080;51.038;7.008;2022-12-24T01:50:38;480.00;;;355.70;;
4132;SDS011;2080;51.038;7.008;2022-12-24T01:53:03;492.70;;;381.00;;
4132;SDS011;2080;51.038;7.008;2022-12-24T01:55:30;496.13;;;420.40;;
4132;SDS011;2080;51.038;7.008;2022-12-24T01:57:55;473.07;;;333.77;;
4132;SDS011;2080;51.038;7.008;2022-12-24T02:00:22;463.97;;;377.83;;
4132;SDS011;2080;51.038;7.008;2022-12-24T02:02:47;430.17;;;258.87;;
4132;SDS011;2080;51.038;7.008;2022-12-24T02:05:15;479.17;;;402.73;;
4132;SDS011;2080;51.038;7.008;2022-12-24T02:07:42;488.83;;;402.50;;
4132;SDS011;2080;51.038;7.008;2022-12-24T02:10:10;574.10;;;513.40;;
4132;SDS011;2080;51.038;7.008;2022-12-24T02:12:36;475.90;;;394.67;;
4132;SDS011;2080;51.038;7.008;2022-12-24T02:15:02;558.40;;;497.00;;
4132;SDS011;2080;51.038;7.008;2022-12-24T02:17:52;530.03;;;473.57;;
4132;SDS011;2080;51.038;7.008;2022-12-24T02:33:17;553.23;;;467.90;;
4132;SDS011;2080;51.038;7.008;2022-12-24T02:35:56;508.63;;;414.63;;
4132;SDS011;2080;51.038;7.008;2022-12-24T02:41:21;515.90;;;448.93;;
4132;SDS011;2080;51.038;7.008;2022-12-24T02:43:46;615.40;;;549.03;;
4132;SDS011;2080;51.038;7.008;2022-12-24T02:46:15;564.00;;;462.97;;
4132;SDS011;2080;51.038;7.008;2022-12-24T02:48:41;499.47;;;402.90;;
4132;SDS011;2080;51.038;7.008;2022-12-24T02:51:08;488.83;;;410.20;;
4132;SDS011;2080;51.038;7.008;2022-12-24T02:53:34;520.70;;;455.27;;
4132;SDS011;2080;51.038;7.008;2022-12-24T02:59:29;822.13;;;617.50;;
4132;SDS011;2080;51.038;7.008;2022-12-24T03:09:25;474.67;;;364.53;;
4132;SDS011;2080;51.038;7.008;2022-12-24T03:11:57;494.70;;;436.70;;
4132;SDS011;2080;51.038;7.008;2022-12-24T03:14:23;474.80;;;380.27;;
4132;SDS011;2080;51.038;7.008;2022-12-24T03:16:49;468.47;;;369.63;;
4132;SDS011;2080;51.038;7.008;2022-12-24T03:19:14;559.87;;;500.53;;
4132;SDS011;2080;51.038;7.008;2022-12-24T03:21:40;692.20;;;626.07;;
4132;SDS011;2080;51.038;7.008;2022-12-24T03:24:07;605.60;;;544.87;;
4132;SDS011;2080;51.038;7.008;2022-12-24T03:26:32;521.97;;;426.03;;
4132;SDS011;2080;51.038;7.008;2022-12-24T03:29:00;636.23;;;573.53;;
4132;SDS011;2080;51.038;7.008;2022-12-24T03:31:38;487.13;;;409.97;;
4132;SDS011;2080;51.038;7.008;2022-12-24T03:34:03;605.43;;;544.80;;
4132;SDS011;2080;51.038;7.008;2022-12-24T03:36:28;636.03;;;572.07;;
4132;SDS011;2080;51.038;7.008;2022-12-24T03:38:54;504.70;;;437.33;;
4132;SDS011;2080;51.038;7.008;2022-12-24T03:41:19;524.17;;;447.20;;
4132;SDS011;2080;51.038;7.008;2022-12-24T03:43:45;490.63;;;420.60;;
4132;SDS011;2080;51.038;7.008;2022-12-24T03:46:10;615.83;;;553.47;;
4132;SDS011;2080;51.038;7.008;2022-12-24T03:48:35;694.03;;;629.43;;
4132;SDS011;2080;51.038;7.008;2022-12-24T03:51:01;707.67;;;637.73;;
4132;SDS011;2080;51.038;7.008;2022-12-24T03:53:26;698.80;;;633.10;;
4132;SDS011;2080;51.038;7.008;2022-12-24T03:55:52;692.93;;;627.23;;
4132;SDS011;2080;51.038;7.008;2022-12-24T03:58:17;663.17;;;599.50;;
4132;SDS011;2080;51.038;7.008;2022-12-24T04:00:42;732.60;;;663.97;;
4132;SDS011;2080;51.038;7.008;2022-12-24T04:03:07;653.20;;;589.93;;
4132;SDS011;2080;51.038;7.008;2022-12-24T04:05:32;722.43;;;654.47;;
4132;SDS011;2080;51.038;7.008;2022-12-24T04:08:00;569.53;;;510.23;;
4132;SDS011;2080;51.038;7.008;2022-12-24T04:10:28;650.00;;;581.60;;
4132;SDS011;2080;51.038;7.008;2022-12-24T04:12:55;441.33;;;322.73;;
4132;SDS011;2080;51.038;7.008;2022-12-24T04:15:23;663.63;;;597.80;;
4132;SDS011;2080;51.038;7.008;2022-12-24T04:17:48;627.60;;;562.50;;
4132;SDS011;2080;51.038;7.008;2022-12-24T04:20:13;608.17;;;547.60;;
4132;SDS011;2080;51.038;7.008;2022-12-24T04:22:41;666.97;;;601.87;;
4132;SDS011;2080;51.038;7.008;2022-12-24T04:25:06;657.47;;;544.20;;
4132;SDS011;2080;51.038;7.008;2022-12-24T04:27:32;579.40;;;519.17;;
4132;SDS011;2080;51.038;7.008;2022-12-24T04:29:57;487.47;;;423.47;;
4132;SDS011;2080;51.038;7.008;2022-12-24T04:32:24;636.77;;;575.53;;
4132;SDS011;2080;51.038;7.008;2022-12-24T04:34:49;514.00;;;456.50;;
4132;SDS011;2080;51.038;7.008;2022-12-24T04:37:17;476.37;;;398.57;;
4132;SDS011;2080;51.038;7.008;2022-12-24T04:39:42;538.10;;;476.50;;
4132;SDS011;2080;51.038;7.008;2022-12-24T04:42:10;569.50;;;510.83;;
4132;SDS011;2080;51.038;7.008;2022-12-24T04:44:35;447.10;;;333.83;;
4132;SDS011;2080;51.038;7.008;2022-12-24T04:47:00;493.77;;;361.83;;
4132;SDS011;2080;51.038;7.008;2022-12-24T04:49:25;505.33;;;432.77;;
4132;SDS011;2080;51.038;7.008;2022-12-24T04:51:53;653.47;;;590.50;;
4132;SDS011;2080;51.038;7.008;2022-12-24T04:54:18;638.60;;;576.73;;
4132;SDS011;2080;51.038;7.008;2022-12-24T04:56:43;677.53;;;609.77;;
4132;SDS011;2080;51.038;7.008;2022-12-24T04:59:08;555.73;;;497.97;;
4132;SDS011;2080;51.038;7.008;2022-12-24T05:01:34;852.20;;;775.77;;
4132;SDS011;2080;51.038;7.008;2022-12-24T05:04:01;737.43;;;668.57;;
4132;SDS011;2080;51.038;7.008;2022-12-24T05:06:28;741.20;;;673.37;;
4132;SDS011;2080;51.038;7.008;2022-12-24T05:08:54;609.77;;;548.47;;
4132;SDS011;2080;51.038;7.008;2022-12-24T05:11:22;629.50;;;567.67;;
4132;SDS011;2080;51.038;7.008;2022-12-24T05:13:50;661.43;;;597.87;;
4132;SDS011;2080;51.038;7.008;2022-12-24T05:16:16;749.30;;;678.57;;
4132;SDS011;2080;51.038;7.008;2022-12-24T05:18:41;599.83;;;537.87;;
4132;SDS011;2080;51.038;7.008;2022-12-24T05:21:10;804.27;;;733.23;;
4132;SDS011;2080;51.038;7.008;2022-12-24T05:23:35;557.60;;;499.73;;
4132;SDS011;2080;51.038;7.008;2022-12-24T05:26:30;679.20;;;616.30;;
4132;SDS011;2080;51.038;7.008;2022-12-24T05:29:00;607.10;;;546.30;;
4132;SDS011;2080;51.038;7.008;2022-12-24T05:31:26;628.43;;;566.70;;
4132;SDS011;2080;51.038;7.008;2022-12-24T05:33:56;721.27;;;654.17;;
4132;SDS011;2080;51.038;7.008;2022-12-24T05:36:22;747.97;;;678.23;;
4132;SDS011;2080;51.038;7.008;2022-12-24T05:38:47;574.23;;;515.43;;
4132;SDS011;2080;51.038;7.008;2022-12-24T05:41:15;680.67;;;617.87;;
4132;SDS011;2080;51.038;7.008;2022-12-24T05:43:40;717.73;;;643.80;;
4132;SDS011;2080;51.038;7.008;2022-12-24T05:46:09;573.27;;;513.67;;
4132;SDS011;2080;51.038;7.008;2022-12-24T05:48:35;605.40;;;541.87;;
4132;SDS011;2080;51.038;7.008;2022-12-24T05:51:04;701.17;;;636.17;;
4132;SDS011;2080;51.038;7.008;2022-12-24T05:53:30;555.03;;;493.57;;
4132;SDS011;2080;51.038;7.008;2022-12-24T05:56:01;666.13;;;602.43;;
4132;SDS011;2080;51.038;7.008;2022-12-24T05:58:26;637.20;;;574.77;;
4132;SDS011;2080;51.038;7.008;2022-12-24T06:00:52;706.53;;;640.53;;
4132;SDS011;2080;51.038;7.008;2022-12-24T06:03:18;514.30;;;446.63;;
4132;SDS011;2080;51.038;7.008;2022-12-24T06:05:45;673.23;;;610.73;;
4132;SDS011;2080;51.038;7.008;2022-12-24T06:08:10;646.37;;;584.37;;
4132;SDS011;2080;51.038;7.008;2022-12-24T06:10:36;709.20;;;643.37;;
4132;SDS011;2080;51.038;7.008;2022-12-24T06:13:03;698.03;;;630.73;;
4132;SDS011;2080;51.038;7.008;2022-12-24T06:15:31;740.33;;;673.77;;
4132;SDS011;2080;51.038;7.008;2022-12-24T06:17:56;669.07;;;604.20;;
4132;SDS011;2080;51.038;7.008;2022-12-24T06:20:21;652.83;;;588.47;;
4132;SDS011;2080;51.038;7.008;2022-12-24T06:22:47;658.50;;;594.97;;
4132;SDS011;2080;51.038;7.008;2022-12-24T06:25:12;737.03;;;670.17;;
4132;SDS011;2080;51.038;7.008;2022-12-24T06:27:37;705.03;;;638.60;;
4132;SDS011;2080;51.038;7.008;2022-12-24T06:30:05;452.67;;;367.97;;
4132;SDS011;2080;51.038;7.008;2022-12-24T06:32:30;688.27;;;624.33;;
4132;SDS011;2080;51.038;7.008;2022-12-24T06:34:57;754.73;;;686.40;;
4132;SDS011;2080;51.038;7.008;2022-12-24T06:37:23;749.63;;;681.27;;
4132;SDS011;2080;51.038;7.008;2022-12-24T06:39:48;714.00;;;647.97;;
4132;SDS011;2080;51.038;7.008;2022-12-24T06:42:13;704.50;;;636.53;;
4132;SDS011;2080;51.038;7.008;2022-12-24T06:44:38;736.30;;;669.00;;
4132;SDS011;2080;51.038;7.008;2022-12-24T06:47:06;455.83;;;333.77;;
4132;SDS011;2080;51.038;7.008;2022-12-24T06:49:31;485.07;;;409.10;;
4132;SDS011;2080;51.038;7.008;2022-12-24T06:51:57;758.50;;;688.73;;
4132;SDS011;2080;51.038;7.008;2022-12-24T06:54:22;728.03;;;660.63;;
4132;SDS011;2080;51.038;7.008;2022-12-24T06:56:47;745.97;;;678.87;;
4132;SDS011;2080;51.038;7.008;2022-12-24T06:59:12;735.67;;;668.77;;
4132;SDS011;2080;51.038;7.008;2022-12-24T07:01:37;760.67;;;690.07;;
4132;SDS011;2080;51.038;7.008;2022-12-24T07:04:03;742.87;;;674.87;;
4132;SDS011;2080;51.038;7.008;2022-12-24T07:06:30;687.60;;;622.73;;
4132;SDS011;2080;51.038;7.008;2022-12-24T07:08:55;736.93;;;670.10;;
4132;SDS011;2080;51.038;7.008;2022-12-24T07:11:21;777.07;;;702.97;;
4132;SDS011;2080;51.038;7.008;2022-12-24T07:13:47;829.60;;;750.33;;
4132;SDS011;2080;51.038;7.008;2022-12-24T07:16:13;658.40;;;594.27;;
4132;SDS011;2080;51.038;7.008;2022-12-24T07:18:38;587.77;;;528.70;;
4132;SDS011;2080;51.038;7.008;2022-12-24T07:21:03;581.67;;;521.60;;
4132;SDS011;2080;51.038;7.008;2022-12-24T07:23:31;697.93;;;633.07;;
4132;SDS011;2080;51.038;7.008;2022-12-24T07:26:00;642.70;;;580.53;;
4132;SDS011;2080;51.038;7.008;2022-12-24T07:28:26;505.37;;;449.90;;
4132;SDS011;2080;51.038;7.008;2022-12-24T07:30:52;609.73;;;548.87;;
4132;SDS011;2080;51.038;7.008;2022-12-24T07:33:17;693.47;;;626.97;;
4132;SDS011;2080;51.038;7.008;2022-12-24T07:35:42;620.67;;;557.50;;
4132;SDS011;2080;51.038;7.008;2022-12-24T07:38:08;507.27;;;441.97;;
4132;SDS011;2080;51.038;7.008;2022-12-24T07:40:33;572.83;;;513.50;;
4132;SDS011;2080;51.038;7.008;2022-12-24T07:42:59;551.07;;;491.77;;
4132;SDS011;2080;51.038;7.008;2022-12-24T07:45:24;449.40;;;324.03;;
4132;SDS011;2080;51.038;7.008;2022-12-24T07:47:49;669.30;;;605.40;;
4132;SDS011;2080;51.038;7.008;2022-12-24T07:50:14;625.77;;;563.17;;
4132;SDS011;2080;51.038;7.008;2022-12-24T07:52:40;544.97;;;470.57;;
4132;SDS011;2080;51.038;7.008;2022-12-24T07:55:05;649.23;;;584.17;;
4132;SDS011;2080;51.038;7.008;2022-12-24T07:57:30;498.93;;;408.40;;
4132;SDS011;2080;51.038;7.008;2022-12-24T07:59:56;514.57;;;452.60;;
4132;SDS011;2080;51.038;7.008;2022-12-24T08:02:21;464.87;;;375.50;;
4132;SDS011;2080;51.038;7.008;2022-12-24T08:04:46;460.87;;;386.30;;
4132;SDS011;2080;51.038;7.008;2022-12-24T08:07:14;558.43;;;500.97;;
4132;SDS011;2080;51.038;7.008;2022-12-24T08:09:39;535.23;;;477.43;;
4132;SDS011;2080;51.038;7.008;2022-12-24T08:12:08;615.57;;;552.87;;
4132;SDS011;2080;51.038;7.008;2022-12-24T08:14:33;487.47;;;431.70;;
4132;SDS011;2080;51.038;7.008;2022-12-24T08:16:58;678.73;;;607.77;;
4132;SDS011;2080;51.038;7.008;2022-12-24T08:19:23;581.20;;;520.63;;
4132;SDS011;2080;51.038;7.008;2022-12-24T08:21:51;596.33;;;533.73;;
4132;SDS011;2080;51.038;7.008;2022-12-24T08:24:16;607.60;;;545.53;;
4132;SDS011;2080;51.038;7.008;2022-12-24T08:26:41;647.40;;;583.17;;
4132;SDS011;2080;51.038;7.008;2022-12-24T08:29:09;605.67;;;544.20;;
4132;SDS011;2080;51.038;7.008;2022-12-24T08:31:34;483.13;;;373.17;;
4132;SDS011;2080;51.038;7.008;2022-12-24T08:34:02;507.30;;;450.57;;
4132;SDS011;2080;51.038;7.008;2022-12-24T08:36:27;521.43;;;440.27;;
4132;SDS011;2080;51.038;7.008;2022-12-24T08:38:53;677.20;;;612.23;;
4132;SDS011;2080;51.038;7.008;2022-12-24T08:41:18;634.03;;;570.37;;
4132;SDS011;2080;51.038;7.008;2022-12-24T08:43:46;620.77;;;557.10;;
4132;SDS011;2080;51.038;7.008;2022-12-24T08:46:11;576.63;;;518.03;;
4132;SDS011;2080;51.038;7.008;2022-12-24T08:48:36;714.93;;;647.30;;
4132;SDS011;2080;51.038;7.008;2022-12-24T08:51:05;424.87;;;299.57;;
4132;SDS011;2080;51.038;7.008;2022-12-24T08:53:31;449.07;;;361.33;;
4132;SDS011;2080;51.038;7.008;2022-12-24T08:56:02;515.60;;;446.70;;
4132;SDS011;2080;51.038;7.008;2022-12-24T08:58:28;516.77;;;446.20;;
4132;SDS011;2080;51.038;7.008;2022-12-24T09:00:56;505.20;;;425.30;;
4132;SDS011;2080;51.038;7.008;2022-12-24T09:03:21;525.60;;;464.97;;
4132;SDS011;2080;51.038;7.008;2022-12-24T09:05:51;546.10;;;487.67;;
4132;SDS011;2080;51.038;7.008;2022-12-24T09:08:17;500.23;;;444.23;;
4132;SDS011;2080;51.038;7.008;2022-12-24T09:10:43;645.97;;;582.67;;
4132;SDS011;2080;51.038;7.008;2022-12-24T09:13:08;721.50;;;653.57;;
4132;SDS011;2080;51.038;7.008;2022-12-24T09:15:33;596.47;;;534.83;;
4132;SDS011;2080;51.038;7.008;2022-12-24T09:17:59;533.17;;;473.00;;
4132;SDS011;2080;51.038;7.008;2022-12-24T09:20:25;582.50;;;522.27;;
4132;SDS011;2080;51.038;7.008;2022-12-24T09:22:50;520.67;;;462.13;;
4132;SDS011;2080;51.038;7.008;2022-12-24T09:25:15;563.50;;;487.57;;
4132;SDS011;2080;51.038;7.008;2022-12-24T09:27:40;460.13;;;371.47;;
4132;SDS011;2080;51.038;7.008;2022-12-24T09:30:06;468.10;;;385.67;;
4132;SDS011;2080;51.038;7.008;2022-12-24T09:32:32;529.13;;;466.23;;
4132;SDS011;2080;51.038;7.008;2022-12-24T09:34:57;547.27;;;482.03;;
4132;SDS011;2080;51.038;7.008;2022-12-24T09:37:22;669.63;;;604.90;;
4132;SDS011;2080;51.038;7.008;2022-12-24T09:39:48;563.90;;;488.07;;
4132;SDS011;2080;51.038;7.008;2022-12-24T09:49:44;565.40;;;503.73;;
4132;SDS011;2080;51.038;7.008;2022-12-24T09:52:14;626.53;;;563.83;;
4132;SDS011;2080;51.038;7.008;2022-12-24T09:54:55;505.27;;;435.53;;
4132;SDS011;2080;51.038;7.008;2022-12-24T09:57:25;628.67;;;565.40;;
4132;SDS011;2080;51.038;7.008;2022-12-24T09:59:56;529.00;;;472.10;;
4132;SDS011;2080;51.038;7.008;2022-12-24T10:02:21;547.53;;;484.40;;
4132;SDS011;2080;51.038;7.008;2022-12-24T10:04:49;523.27;;;452.40;;
4132;SDS011;2080;51.038;7.008;2022-12-24T10:15:09;708.00;;;641.33;;
4132;SDS011;2080;51.038;7.008;2022-12-24T10:17:53;585.17;;;521.73;;
4132;SDS011;2080;51.038;7.008;2022-12-24T10:20:56;579.70;;;519.60;;
4132;SDS011;2080;51.038;7.008;2022-12-24T10:25:43;445.73;;;310.83;;
4132;SDS011;2080;51.038;7.008;2022-12-24T10:28:18;732.53;;;657.57;;
4132;SDS011;2080;51.038;7.008;2022-12-24T10:30:45;546.93;;;488.83;;
4132;SDS011;2080;51.038;7.008;2022-12-24T10:33:19;626.67;;;564.77;;
4132;SDS011;2080;51.038;7.008;2022-12-24T10:35:46;483.37;;;402.50;;
4132;SDS011;2080;51.038;7.008;2022-12-24T10:38:12;510.90;;;450.13;;
4132;SDS011;2080;51.038;7.008;2022-12-24T10:43:16;589.47;;;530.13;;
4132;SDS011;2080;51.038;7.008;2022-12-24T10:45:43;527.67;;;470.30;;
4132;SDS011;2080;51.038;7.008;2022-12-24T10:48:11;549.27;;;491.03;;
4132;SDS011;2080;51.038;7.008;2022-12-24T10:50:40;541.07;;;478.67;;
4132;SDS011;2080;51.038;7.008;2022-12-24T10:56:17;600.97;;;540.27;;
4132;SDS011;2080;51.038;7.008;2022-12-24T10:58:49;485.83;;;402.23;;
4132;SDS011;2080;51.038;7.008;2022-12-24T11:01:15;490.70;;;402.63;;
4132;SDS011;2080;51.038;7.008;2022-12-24T11:03:40;505.93;;;400.73;;
4132;SDS011;2080;51.038;7.008;2022-12-24T11:06:13;528.83;;;471.60;;
4132;SDS011;2080;51.038;7.008;2022-12-24T11:08:44;438.13;;;306.07;;
4132;SDS011;2080;51.038;7.008;2022-12-24T11:11:11;442.33;;;281.03;;
4132;SDS011;2080;51.038;7.008;2022-12-24T11:13:43;560.43;;;476.67;;
4132;SDS011;2080;51.038;7.008;2022-12-24T11:18:35;446.83;;;323.80;;
4132;SDS011;2080;51.038;7.008;2022-12-24T11:21:01;482.90;;;427.57;;
4132;SDS011;2080;51.038;7.008;2022-12-24T11:23:27;474.27;;;396.70;;
4132;SDS011;2080;51.038;7.008;2022-12-24T11:25:53;531.50;;;474.43;;
4132;SDS011;2080;51.038;7.008;2022-12-24T11:28:23;486.13;;;417.87;;
4132;SDS011;2080;51.038;7.008;2022-12-24T11:30:59;461.17;;;348.73;;
4132;SDS011;2080;51.038;7.008;2022-12-24T11:33:24;464.67;;;362.30;;
4132;SDS011;2080;51.038;7.008;2022-12-24T11:36:03;470.97;;;358.17;;
4132;SDS011;2080;51.038;7.008;2022-12-24T11:38:33;460.43;;;336.23;;
4132;SDS011;2080;51.038;7.008;2022-12-24T11:40:59;456.47;;;303.13;;
4132;SDS011;2080;51.038;7.008;2022-12-24T11:43:25;453.07;;;316.37;;
4132;SDS011;2080;51.038;7.008;2022-12-24T11:48:39;488.27;;;393.90;;
4132;SDS011;2080;51.038;7.008;2022-12-24T11:51:05;425.50;;;232.03;;
4132;SDS011;2080;51.038;7.008;2022-12-24T11:56:35;457.37;;;336.57;;
4132;SDS011;2080;51.038;7.008;2022-12-24T12:02:12;492.90;;;378.77;;
4132;SDS011;2080;51.038;7.008;2022-12-24T12:04:31;459.70;;;338.87;;
4132;SDS011;2080;51.038;7.008;2022-12-24T12:07:03;442.57;;;286.63;;
4132;SDS011;2080;51.038;7.008;2022-12-24T12:09:31;462.80;;;340.87;;
4132;SDS011;2080;51.038;7.008;2022-12-24T12:11:59;455.03;;;342.07;;
4132;SDS011;2080;51.038;7.008;2022-12-24T12:14:30;449.33;;;289.93;;
4132;SDS011;2080;51.038;7.008;2022-12-24T12:19:24;472.93;;;373.17;;
4132;SDS011;2080;51.038;7.008;2022-12-24T12:21:50;469.20;;;354.97;;
4132;SDS011;2080;51.038;7.008;2022-12-24T12:24:21;466.33;;;367.33;;
4132;SDS011;2080;51.038;7.008;2022-12-24T12:26:48;477.60;;;396.07;;
4132;SDS011;2080;51.038;7.008;2022-12-24T12:29:26;472.07;;;366.77;;
4132;SDS011;2080;51.038;7.008;2022-12-24T12:31:54;483.37;;;407.40;;
4132;SDS011;2080;51.038;7.008;2022-12-24T12:34:28;464.83;;;351.43;;
4132;SDS011;2080;51.038;7.008;2022-12-24T12:36:57;482.43;;;358.33;;
4132;SDS011;2080;51.038;7.008;2022-12-24T12:39:29;440.03;;;310.17;;
4132;SDS011;2080;51.038;7.008;2022-12-24T12:52:13;490.87;;;321.93;;
4132;SDS011;2080;51.038;7.008;2022-12-24T12:57:10;476.93;;;388.20;;
4132;SDS011;2080;51.038;7.008;2022-12-24T12:59:39;500.67;;;415.83;;
4132;SDS011;2080;51.038;7.008;2022-12-24T13:02:19;532.53;;;449.73;;
4132;SDS011;2080;51.038;7.008;2022-12-24T13:10:17;460.73;;;338.40;;
4132;SDS011;2080;51.038;7.008;2022-12-24T13:12:53;403.07;;;187.13;;
4132;SDS011;2080;51.038;7.008;2022-12-24T13:20:41;463.60;;;318.07;;
4132;SDS011;2080;51.038;7.008;2022-12-24T13:23:20;445.10;;;365.67;;
4132;SDS011;2080;51.038;7.008;2022-12-24T13:25:50;497.47;;;417.90;;
4132;SDS011;2080;51.038;7.008;2022-12-24T13:30:44;433.57;;;261.87;;
4132;SDS011;2080;51.038;7.008;2022-12-24T13:33:11;412.10;;;232.93;;
4132;SDS011;2080;51.038;7.008;2022-12-24T13:35:36;451.27;;;339.60;;
4132;SDS011;2080;51.038;7.008;2022-12-24T13:40:49;435.20;;;309.90;;
4132;SDS011;2080;51.038;7.008;2022-12-24T13:43:16;504.27;;;423.90;;
4132;SDS011;2080;51.038;7.008;2022-12-24T13:45:42;378.53;;;186.43;;
4132;SDS011;2080;51.038;7.008;2022-12-24T13:53:04;457.83;;;314.53;;
4132;SDS011;2080;51.038;7.008;2022-12-24T13:55:32;466.57;;;414.40;;
4132;SDS011;2080;51.038;7.008;2022-12-24T13:58:02;482.67;;;382.33;;
4132;SDS011;2080;51.038;7.008;2022-12-24T14:00:43;456.23;;;306.57;;
4132;SDS011;2080;51.038;7.008;2022-12-24T14:03:17;405.33;;;189.30;;
4132;SDS011;2080;51.038;7.008;2022-12-24T14:05:46;429.13;;;252.60;;
4132;SDS011;2080;51.038;7.008;2022-12-24T14:10:44;454.97;;;301.23;;
4132;SDS011;2080;51.038;7.008;2022-12-24T14:18:22;437.13;;;276.37;;
4132;SDS011;2080;51.038;7.008;2022-12-24T14:20:52;386.87;;;160.30;;
4132;SDS011;2080;51.038;7.008;2022-12-24T14:26:02;405.30;;;199.97;;
4132;SDS011;2080;51.038;7.008;2022-12-24T14:28:34;388.17;;;162.50;;
4132;SDS011;2080;51.038;7.008;2022-12-24T14:31:03;453.97;;;320.20;;
4132;SDS011;2080;51.038;7.008;2022-12-24T14:33:31;465.23;;;373.10;;
4132;SDS011;2080;51.038;7.008;2022-12-24T14:35:57;459.77;;;337.77;;
4132;SDS011;2080;51.038;7.008;2022-12-24T14:38:23;438.90;;;273.70;;
4132;SDS011;2080;51.038;7.008;2022-12-24T14:46:07;487.30;;;417.03;;
4132;SDS011;2080;51.038;7.008;2022-12-24T14:56:08;523.03;;;468.03;;
4132;SDS011;2080;51.038;7.008;2022-12-24T14:58:39;497.80;;;443.67;;
4132;SDS011;2080;51.038;7.008;2022-12-24T15:06:25;444.90;;;341.73;;
4132;SDS011;2080;51.038;7.008;2022-12-24T15:08:51;455.20;;;360.57;;
4132;SDS011;2080;51.038;7.008;2022-12-24T15:11:17;483.37;;;411.63;;
4132;SDS011;2080;51.038;7.008;2022-12-24T15:13:44;480.80;;;393.27;;
4132;SDS011;2080;51.038;7.008;2022-12-24T15:16:13;491.60;;;422.43;;
4132;SDS011;2080;51.038;7.008;2022-12-24T15:18:49;485.13;;;419.80;;
4132;SDS011;2080;51.038;7.008;2022-12-24T15:21:24;475.67;;;416.57;;
4132;SDS011;2080;51.038;7.008;2022-12-24T15:23:52;474.23;;;376.80;;
4132;SDS011;2080;51.038;7.008;2022-12-24T15:26:21;511.33;;;435.67;;
4132;SDS011;2080;51.038;7.008;2022-12-24T15:28:51;521.70;;;453.17;;
4132;SDS011;2080;51.038;7.008;2022-12-24T15:31:20;496.87;;;444.17;;
4132;SDS011;2080;51.038;7.008;2022-12-24T15:33:46;485.37;;;402.43;;
4132;SDS011;2080;51.038;7.008;2022-12-24T15:36:13;500.53;;;430.00;;
4132;SDS011;2080;51.038;7.008;2022-12-24T15:38:39;475.43;;;419.23;;
4132;SDS011;2080;51.038;7.008;2022-12-24T15:41:14;501.60;;;433.83;;
4132;SDS011;2080;51.038;7.008;2022-12-24T15:43:40;484.07;;;389.20;;
4132;SDS011;2080;51.038;7.008;2022-12-24T15:46:05;485.37;;;398.63;;
4132;SDS011;2080;51.038;7.008;2022-12-24T15:48:31;476.53;;;415.83;;
4132;SDS011;2080;51.038;7.008;2022-12-24T15:50:57;511.73;;;456.37;;
4132;SDS011;2080;51.038;7.008;2022-12-24T15:53:25;473.43;;;367.97;;
4132;SDS011;2080;51.038;7.008;2022-12-24T15:58:27;475.97;;;382.53;;
4132;SDS011;2080;51.038;7.008;2022-12-24T16:03:32;479.20;;;387.20;;
4132;SDS011;2080;51.038;7.008;2022-12-24T16:06:01;472.37;;;370.60;;
4132;SDS011;2080;51.038;7.008;2022-12-24T16:08:27;485.43;;;409.77;;
4132;SDS011;2080;51.038;7.008;2022-12-24T16:13:22;492.90;;;397.73;;
4132;SDS011;2080;51.038;7.008;2022-12-24T16:15:49;468.60;;;383.17;;
4132;SDS011;2080;51.038;7.008;2022-12-24T16:18:16;498.73;;;413.80;;
4132;SDS011;2080;51.038;7.008;2022-12-24T16:20:46;510.73;;;443.87;;
4132;SDS011;2080;51.038;7.008;2022-12-24T16:23:16;512.07;;;456.97;;
4132;SDS011;2080;51.038;7.008;2022-12-24T16:25:42;518.63;;;451.33;;
4132;SDS011;2080;51.038;7.008;2022-12-24T16:28:09;508.77;;;416.43;;
4132;SDS011;2080;51.038;7.008;2022-12-24T16:30:35;488.23;;;399.63;;
4132;SDS011;2080;51.038;7.008;2022-12-24T16:33:05;504.63;;;434.70;;
4132;SDS011;2080;51.038;7.008;2022-12-24T16:35:36;497.20;;;416.10;;
4132;SDS011;2080;51.038;7.008;2022-12-24T16:38:02;542.40;;;483.07;;